Time;durP1;ratioP1;P1;durP2;ratioP2;P2;SDS_P1;SDS_P2;PMS_P1;PMS_P2;Temp;Humidity;BMP_temperature;BMP_pressure;BME280_temperature;BME280_humidity;BME280_pressure;Samples;Min_cycle;Max_cycle;Signal;HPM_P1;HPM_P2
2023/02/25 00:02:01;;;;;;;;;;;;;;;;;;4440066;32;19963;-75
2023/02/25 00:04:27;;;;;;;;;;;;;;;;;;4439779;32;19947;-75
2023/02/25 00:06:52;;;;;;;;;;;;;;;;;;4439236;32;19937;-75
2023/02/25 00:09:17;;;;;;;;;;;;;;;;;;4438728;32;19951;-75
2023/02/25 00:11:42;;;;;;;;;;;;;;;;;;4438749;32;19955;-77
2023/02/25 00:14:07;;;;;;;;;;;;;;;;;;4438473;32;19937;-75
2023/02/25 00:16:32;;;;;;;;;;;;;;;;;;4439118;32;20770;-75
2023/02/25 00:18:58;;;;;;;;;;;;;;;;;;4438972;32;19932;-77
2023/02/25 00:21:23;;;;;;;;;;;;;;;;;;4439182;32;19937;-76
2023/02/25 00:23:48;;;;;;;;;;;;;;;;;;4439439;32;19932;-75
2023/02/25 00:26:13;;;;;;;;;;;;;;;;;;4439797;32;19966;-76
2023/02/25 00:28:41;;;;;;;;;;;;;;;;;;4437690;32;19937;-75
2023/02/25 00:31:07;;;;;;;;;;;;;;;;;;4439492;32;19978;-75
2023/02/25 00:33:32;;;;;;;;;;;;;;;;;;4438826;32;19936;-76
2023/02/25 00:35:57;;;;;;;;;;;;;;;;;;4439306;32;19994;-76
2023/02/25 00:38:23;;;;;;;;;;;;;;;;;;4423923;32;19933;-75
2023/02/25 00:40:48;;;;;;;;;;;;;;;;;;4439010;32;19953;-75
2023/02/25 00:43:13;;;;;;;;;;;;;;;;;;4438530;32;19941;-75
2023/02/25 00:45:39;;;;;;;;;;;;;;;;;;4438886;32;20286;-76
2023/02/25 00:48:04;;;;;;;;;;;;;;;;;;4437633;32;20274;-76
2023/02/25 00:50:29;;;;;;;;;;;;;;;;;;4423646;32;20250;-76
2023/02/25 00:52:54;;;;;;;;;;;;;;;;;;4438821;32;19933;-75
2023/02/25 00:55:19;;;;;;;;;;;;;;;;;;4439603;32;19941;-76
2023/02/25 00:57:44;;;;;;;;;;;;;;;;;;4439239;32;19941;-76
2023/02/25 01:00:14;;;;;;;;;;;;;;;;;;4439056;32;19976;-76
2023/02/25 01:02:39;;;;;;;;;;;;;;;;;;4438049;32;19937;-76
2023/02/25 01:05:05;;;;;;;;;;;;;;;;;;4438742;32;19951;-76
2023/02/25 01:07:30;;;;;;;;;;;;;;;;;;4438082;32;19933;-76
2023/02/25 01:09:55;;;;;;;;;;;;;;;;;;4437506;32;20295;-76
2023/02/25 01:12:20;;;;;;;;;;;;;;;;;;4437456;32;20020;-77
2023/02/25 01:14:45;;;;;;;;;;;;;;;;;;4437764;32;20270;-76
2023/02/25 01:17:10;;;;;;;;;;;;;;;;;;4438613;32;20003;-75
2023/02/25 01:19:36;;;;;;;;;;;;;;;;;;4439788;32;19953;-75
2023/02/25 01:22:01;;;;;;;;;;;;;;;;;;4437393;32;19991;-75
2023/02/25 01:24:26;;;;;;;;;;;;;;;;;;4438117;32;20302;-75
2023/02/25 01:26:51;;;;;;;;;;;;;;;;;;4438136;32;19972;-76
2023/02/25 01:29:16;;;;;;;;;;;;;;;;;;4439164;32;19947;-75
2023/02/25 01:31:41;;;;;;;;;;;;;;;;;;4424011;32;19964;-76
2023/02/25 01:34:06;;;;;;;;;;;;;;;;;;4438537;32;19995;-77
2023/02/25 01:36:32;;;;;;;;;;;;;;;;;;4425082;32;19937;-77
2023/02/25 01:38:57;;;;;;;;;;;;;;;;;;4438402;32;19944;-77
2023/02/25 01:41:22;;;;;;;;;;;;;;;;;;4439017;32;19937;-76
2023/02/25 01:43:47;;;;;;;;;;;;;;;;;;4439601;32;20306;-75
2023/02/25 01:46:12;;;;;;;;;;;;;;;;;;4443201;32;19992;-75
2023/02/25 01:48:37;;;;;;;;;;;;;;;;;;4443531;32;19944;-75
2023/02/25 01:51:02;;;;;;;;;;;;;;;;;;4441501;32;19957;-76
2023/02/25 01:53:27;;;;;;;;;;;;;;;;;;4441619;32;20349;-74
2023/02/25 01:55:52;;;;;;;;;;;;;;;;;;4441391;32;19967;-77
2023/02/25 01:58:17;;;;;;;;;;;;;;;;;;4439084;32;19933;-76
2023/02/25 02:00:43;;;;;;;;;;;;;;;;;;4440833;32;19948;-77
2023/02/25 02:03:14;;;;;;;;;;;;;;;;;;4439106;32;19941;-76
2023/02/25 02:05:39;;;;;;;;;;;;;;;;;;4439259;32;19929;-76
2023/02/25 02:08:04;;;;;;;;;;;;;;;;;;4438630;32;19963;-77
2023/02/25 02:10:30;;;;;;;;;;;;;;;;;;4425226;32;19937;-77
2023/02/25 02:12:55;;;;;;;;;;;;;;;;;;4437335;32;19940;-76
2023/02/25 02:15:20;;;;;;;;;;;;;;;;;;4424760;32;19937;-76
2023/02/25 02:17:45;;;;;;;;;;;;;;;;;;4438027;32;19936;-77
2023/02/25 02:20:11;;;;;;;;;;;;;;;;;;4438384;32;19937;-76
2023/02/25 02:22:36;;;;;;;;;;;;;;;;;;4437038;32;20001;-77
2023/02/25 02:25:02;;;;;;;;;;;;;;;;;;4436942;32;19944;-76
2023/02/25 02:27:27;;;;;;;;;;;;;;;;;;4436970;32;20347;-77
2023/02/25 02:29:52;;;;;;;;;;;;;;;;;;4437853;32;19957;-77
2023/02/25 02:32:17;;;;;;;;;;;;;;;;;;4437721;32;19941;-76
2023/02/25 02:34:43;;;;;;;;;;;;;;;;;;4436993;32;19950;-77
2023/02/25 02:37:08;;;;;;;;;;;;;;;;;;4438558;32;19948;-77
2023/02/25 02:39:33;;;;;;;;;;;;;;;;;;4436838;32;19940;-77
2023/02/25 02:41:58;;;;;;;;;;;;;;;;;;4436982;32;19936;-76
2023/02/25 02:44:23;;;;;;;;;;;;;;;;;;4422535;32;19933;-77
2023/02/25 02:46:48;;;;;;;;;;;;;;;;;;4436609;32;19944;-77
2023/02/25 02:49:13;;;;;;;;;;;;;;;;;;4436073;32;19940;-77
2023/02/25 02:51:38;;;;;;;;;;;;;;;;;;4436088;32;20325;-77
2023/02/25 02:54:04;;;;;;;;;;;;;;;;;;4438475;32;19937;-76
2023/02/25 02:56:29;;;;;;;;;;;;;;;;;;4436364;32;19937;-77
2023/02/25 02:58:55;;;;;;;;;;;;;;;;;;4437329;32;20302;-76
2023/02/25 03:01:20;;;;;;;;;;;;;;;;;;4436893;32;19972;-77
2023/02/25 03:03:45;;;;;;;;;;;;;;;;;;4438335;32;19978;-76
2023/02/25 03:06:10;;;;;;;;;;;;;;;;;;4437435;32;20031;-75
2023/02/25 03:08:36;;;;;;;;;;;;;;;;;;4436462;32;19966;-74
2023/02/25 03:11:01;;;;;;;;;;;;;;;;;;4437480;32;20239;-75
2023/02/25 03:13:26;;;;;;;;;;;;;;;;;;4436684;32;19941;-75
2023/02/25 03:15:51;;;;;;;;;;;;;;;;;;4436331;32;19982;-75
2023/02/25 03:18:16;;;;;;;;;;;;;;;;;;4437651;32;19975;-76
2023/02/25 03:20:41;;;;;;;;;;;;;;;;;;4437358;32;19979;-76
2023/02/25 03:23:06;;;;;;;;;;;;;;;;;;4421799;32;19977;-76
2023/02/25 03:25:31;;;;;;;;;;;;;;;;;;4423188;32;19936;-76
2023/02/25 03:27:57;;;;;;;;;;;;;;;;;;4437102;32;19997;-76
2023/02/25 03:30:22;;;;;;;;;;;;;;;;;;4436315;32;19949;-76
2023/02/25 03:32:47;;;;;;;;;;;;;;;;;;4437528;32;19945;-76
2023/02/25 03:35:12;;;;;;;;;;;;;;;;;;4437482;32;19940;-76
2023/02/25 03:37:37;;;;;;;;;;;;;;;;;;4437716;32;19975;-75
2023/02/25 03:40:12;;;;;;;;;;;;;;;;;;4423288;32;20599;-76
2023/02/25 03:42:37;;;;;;;;;;;;;;;;;;4435627;32;20294;-76
2023/02/25 03:45:02;;;;;;;;;;;;;;;;;;4436966;32;20224;-76
2023/02/25 03:47:28;;;;;;;;;;;;;;;;;;4436194;32;19932;-76
2023/02/25 03:49:53;;;;;;;;;;;;;;;;;;4436095;32;19984;-75
2023/02/25 03:52:18;;;;;;;;;;;;;;;;;;4437339;32;20003;-76
2023/02/25 03:54:43;;;;;;;;;;;;;;;;;;4437735;32;20254;-75
2023/02/25 03:57:08;;;;;;;;;;;;;;;;;;4435495;32;20353;-75
2023/02/25 03:59:33;;;;;;;;;;;;;;;;;;4421732;32;19937;-74
2023/02/25 04:01:58;;;;;;;;;;;;;;;;;;4438704;32;19948;-75
2023/02/25 04:04:24;;;;;;;;;;;;;;;;;;4441052;32;19937;-75
2023/02/25 04:06:49;;;;;;;;;;;;;;;;;;4429738;32;19941;-75
2023/02/25 04:09:14;;;;;;;;;;;;;;;;;;4441269;32;19933;-76
2023/02/25 04:11:39;;;;;;;;;;;;;;;;;;4425340;32;19990;-75
2023/02/25 04:14:04;;;;;;;;;;;;;;;;;;4439974;32;20000;-75
2023/02/25 04:16:29;;;;;;;;;;;;;;;;;;4439813;32;19975;-75
2023/02/25 04:18:54;;;;;;;;;;;;;;;;;;4440588;32;20291;-76
2023/02/25 04:21:20;;;;;;;;;;;;;;;;;;4438223;32;19974;-75
2023/02/25 04:23:46;;;;;;;;;;;;;;;;;;4438647;32;20006;-75
2023/02/25 04:26:11;;;;;;;;;;;;;;;;;;4426190;32;19976;-75
2023/02/25 04:28:36;;;;;;;;;;;;;;;;;;4439064;32;20335;-75
2023/02/25 04:31:01;;;;;;;;;;;;;;;;;;4438392;32;19986;-75
2023/02/25 04:33:27;;;;;;;;;;;;;;;;;;4424027;32;19983;-75
2023/02/25 04:35:52;;;;;;;;;;;;;;;;;;4437881;32;19949;-75
2023/02/25 04:38:17;;;;;;;;;;;;;;;;;;4438056;32;19944;-75
2023/02/25 04:40:42;;;;;;;;;;;;;;;;;;4437863;32;20266;-75
2023/02/25 04:43:08;;;;;;;;;;;;;;;;;;4438923;32;20000;-75
2023/02/25 04:45:33;;;;;;;;;;;;;;;;;;4438059;32;19960;-75
2023/02/25 04:47:58;;;;;;;;;;;;;;;;;;4437861;32;19937;-75
2023/02/25 04:50:24;;;;;;;;;;;;;;;;;;4438001;32;19940;-75
2023/02/25 04:52:49;;;;;;;;;;;;;;;;;;4437731;32;20259;-75
2023/02/25 04:55:14;;;;;;;;;;;;;;;;;;4438049;32;19932;-76
2023/02/25 04:57:41;;;;;;;;;;;;;;;;;;4438826;32;19968;-75
2023/02/25 05:00:08;;;;;;;;;;;;;;;;;;4424126;32;19929;-76
2023/02/25 05:02:33;;;;;;;;;;;;;;;;;;4438230;32;19940;-75
2023/02/25 05:04:58;;;;;;;;;;;;;;;;;;4439312;32;19990;-75
2023/02/25 05:07:23;;;;;;;;;;;;;;;;;;4423468;32;19977;-75
2023/02/25 05:09:48;;;;;;;;;;;;;;;;;;4439470;32;19932;-76
2023/02/25 05:12:13;;;;;;;;;;;;;;;;;;4437970;32;19945;-72
2023/02/25 05:14:38;;;;;;;;;;;;;;;;;;4421477;32;20409;-76
2023/02/25 05:17:03;;;;;;;;;;;;;;;;;;4423387;32;19933;-76
2023/02/25 05:19:28;;;;;;;;;;;;;;;;;;4421817;32;19937;-76
2023/02/25 05:21:54;;;;;;;;;;;;;;;;;;4423916;32;19992;-76
2023/02/25 05:24:19;;;;;;;;;;;;;;;;;;4425602;32;20001;-75
2023/02/25 05:26:44;;;;;;;;;;;;;;;;;;4424800;32;20247;-75
2023/02/25 05:29:09;;;;;;;;;;;;;;;;;;4423862;32;19929;-75
2023/02/25 05:31:34;;;;;;;;;;;;;;;;;;4425162;32;19948;-74
2023/02/25 05:33:59;;;;;;;;;;;;;;;;;;4428713;32;19972;-75
2023/02/25 05:36:24;;;;;;;;;;;;;;;;;;4425765;32;19933;-76
2023/02/25 05:38:50;;;;;;;;;;;;;;;;;;4423199;32;19985;-75
2023/02/25 05:41:15;;;;;;;;;;;;;;;;;;4423409;32;19933;-76
2023/02/25 05:43:40;;;;;;;;;;;;;;;;;;4422063;32;19951;-75
2023/02/25 05:46:10;;;;;;;;;;;;;;;;;;4424022;32;19952;-76
2023/02/25 05:48:35;;;;;;;;;;;;;;;;;;4422075;32;19937;-75
2023/02/25 05:51:00;;;;;;;;;;;;;;;;;;4422098;32;19972;-75
2023/02/25 05:53:25;;;;;;;;;;;;;;;;;;4422058;32;19948;-76
2023/02/25 05:55:50;;;;;;;;;;;;;;;;;;4422305;32;19974;-75
2023/02/25 05:58:15;;;;;;;;;;;;;;;;;;4421914;32;19933;-75
2023/02/25 06:00:40;;;;;;;;;;;;;;;;;;4422660;32;19933;-76
2023/02/25 06:03:05;;;;;;;;;;;;;;;;;;4422956;32;19957;-76
2023/02/25 06:05:31;;;;;;;;;;;;;;;;;;4421715;32;20374;-76
2023/02/25 06:07:56;;;;;;;;;;;;;;;;;;4423506;32;19951;-76
2023/02/25 06:10:21;;;;;;;;;;;;;;;;;;4426772;32;19973;-76
2023/02/25 06:12:46;;;;;;;;;;;;;;;;;;4438327;32;19951;-76
2023/02/25 06:15:13;;;;;;;;;;;;;;;;;;4423657;32;19984;-76
2023/02/25 06:17:38;;;;;;;;;;;;;;;;;;4439005;32;19947;-76
2023/02/25 06:20:04;;;;;;;;;;;;;;;;;;4440336;32;19940;-74
2023/02/25 06:22:29;;;;;;;;;;;;;;;;;;4439726;32;19945;-75
2023/02/25 06:24:54;;;;;;;;;;;;;;;;;;4437412;32;20359;-75
2023/02/25 06:27:19;;;;;;;;;;;;;;;;;;4438597;32;19969;-75
2023/02/25 06:29:44;;;;;;;;;;;;;;;;;;4436905;32;19980;-75
2023/02/25 06:32:09;;;;;;;;;;;;;;;;;;4436793;32;19963;-76
2023/02/25 06:34:35;;;;;;;;;;;;;;;;;;4436677;32;19933;-76
2023/02/25 06:37:00;;;;;;;;;;;;;;;;;;4436984;32;20364;-75
2023/02/25 06:39:25;;;;;;;;;;;;;;;;;;4438107;32;19937;-76
2023/02/25 06:41:50;;;;;;;;;;;;;;;;;;4437115;32;20054;-76
2023/02/25 06:44:15;;;;;;;;;;;;;;;;;;4436851;32;19990;-75
2023/02/25 06:46:40;;;;;;;;;;;;;;;;;;4423093;32;19929;-75
2023/02/25 06:49:05;;;;;;;;;;;;;;;;;;4430308;32;20355;-76
2023/02/25 06:51:30;;;;;;;;;;;;;;;;;;4422012;32;19933;-75
2023/02/25 06:53:55;;;;;;;;;;;;;;;;;;4437497;32;19937;-75
2023/02/25 06:56:21;;;;;;;;;;;;;;;;;;4422949;32;20291;-75
2023/02/25 06:58:46;;;;;;;;;;;;;;;;;;4424145;32;19957;-75
2023/02/25 07:01:12;;;;;;;;;;;;;;;;;;4422305;32;20001;-76
2023/02/25 07:03:37;;;;;;;;;;;;;;;;;;4406649;32;20345;-75
2023/02/25 07:06:02;;;;;;;;;;;;;;;;;;4421925;32;19949;-76
2023/02/25 07:08:27;;;;;;;;;;;;;;;;;;4421447;32;20244;-75
2023/02/25 07:10:52;;;;;;;;;;;;;;;;;;4421137;32;19932;-76
2023/02/25 07:13:17;;;;;;;;;;;;;;;;;;4420838;32;19986;-76
2023/02/25 07:15:43;;;;;;;;;;;;;;;;;;4421643;32;19952;-75
2023/02/25 07:18:08;;;;;;;;;;;;;;;;;;4420477;32;19933;-76
2023/02/25 07:20:33;;;;;;;;;;;;;;;;;;4420592;32;19941;-76
2023/02/25 07:22:58;;;;;;;;;;;;;;;;;;4420610;32;20340;-76
2023/02/25 07:25:23;;;;;;;;;;;;;;;;;;4407250;32;20388;-76
2023/02/25 07:27:48;;;;;;;;;;;;;;;;;;4406631;32;19948;-77
2023/02/25 07:30:13;;;;;;;;;;;;;;;;;;4420371;32;20303;-76
2023/02/25 07:32:39;;;;;;;;;;;;;;;;;;4421010;32;19947;-77
2023/02/25 07:35:04;;;;;;;;;;;;;;;;;;4420432;32;19989;-76
2023/02/25 07:37:29;;;;;;;;;;;;;;;;;;4423073;32;19948;-76
2023/02/25 07:39:54;;;;;;;;;;;;;;;;;;4430788;32;19954;-77
2023/02/25 07:42:19;;;;;;;;;;;;;;;;;;4424972;32;19999;-75
2023/02/25 07:44:45;;;;;;;;;;;;;;;;;;4424808;32;19936;-76
2023/02/25 07:47:10;;;;;;;;;;;;;;;;;;4438839;32;20276;-77
2023/02/25 07:49:35;;;;;;;;;;;;;;;;;;4440865;32;19951;-80
2023/02/25 07:52:00;;;;;;;;;;;;;;;;;;4439601;32;19976;-76
2023/02/25 07:54:25;;;;;;;;;;;;;;;;;;4439355;32;19929;-77
2023/02/25 07:56:50;;;;;;;;;;;;;;;;;;4438918;32;19944;-77
2023/02/25 07:59:15;;;;;;;;;;;;;;;;;;4439844;32;19969;-78
2023/02/25 08:01:40;;;;;;;;;;;;;;;;;;4439060;32;19947;-77
2023/02/25 08:04:05;;;;;;;;;;;;;;;;;;4439999;32;20319;-78
2023/02/25 08:06:31;;;;;;;;;;;;;;;;;;4425446;32;19948;-78
2023/02/25 08:08:56;;;;;;;;;;;;;;;;;;4440208;32;19937;-78
2023/02/25 08:11:21;;;;;;;;;;;;;;;;;;4438406;32;20007;-77
2023/02/25 08:13:46;;;;;;;;;;;;;;;;;;4438210;32;19984;-76
2023/02/25 08:16:11;;;;;;;;;;;;;;;;;;4439710;32;19949;-78
2023/02/25 08:18:36;;;;;;;;;;;;;;;;;;4438818;32;19932;-77
2023/02/25 08:21:03;;;;;;;;;;;;;;;;;;4425696;32;19980;-76
2023/02/25 08:23:29;;;;;;;;;;;;;;;;;;4424298;32;19951;-78
2023/02/25 08:25:54;;;;;;;;;;;;;;;;;;4437817;32;19937;-77
2023/02/25 08:28:19;;;;;;;;;;;;;;;;;;4437345;32;19968;-77
2023/02/25 08:30:44;;;;;;;;;;;;;;;;;;4439160;32;19951;-77
2023/02/25 08:33:09;;;;;;;;;;;;;;;;;;4439028;32;19937;-77
2023/02/25 08:35:35;;;;;;;;;;;;;;;;;;4439746;32;19937;-76
2023/02/25 08:38:00;;;;;;;;;;;;;;;;;;4424244;32;20250;-77
2023/02/25 08:40:25;;;;;;;;;;;;;;;;;;4423726;32;19974;-76
2023/02/25 08:42:50;;;;;;;;;;;;;;;;;;4438415;32;20342;-77
2023/02/25 08:45:15;;;;;;;;;;;;;;;;;;4440718;32;19948;-77
2023/02/25 08:47:40;;;;;;;;;;;;;;;;;;4437678;32;19945;-77
2023/02/25 08:50:05;;;;;;;;;;;;;;;;;;4437587;32;19977;-78
2023/02/25 08:52:32;;;;;;;;;;;;;;;;;;4423563;32;20337;-77
2023/02/25 08:54:57;;;;;;;;;;;;;;;;;;4439212;32;19974;-77
2023/02/25 08:57:24;;;;;;;;;;;;;;;;;;4423709;32;19957;-77
2023/02/25 08:59:50;;;;;;;;;;;;;;;;;;4438754;32;19944;-77
2023/02/25 09:02:15;;;;;;;;;;;;;;;;;;4423493;32;19932;-76
2023/02/25 09:04:41;;;;;;;;;;;;;;;;;;4436043;32;20032;-76
2023/02/25 09:07:06;;;;;;;;;;;;;;;;;;4430494;32;19947;-78
2023/02/25 09:09:32;;;;;;;;;;;;;;;;;;4428627;32;19945;-78
2023/02/25 09:11:58;;;;;;;;;;;;;;;;;;4435936;32;19937;-77
2023/02/25 09:14:23;;;;;;;;;;;;;;;;;;4417332;32;19977;-77
2023/02/25 09:16:48;;;;;;;;;;;;;;;;;;4410815;32;19949;-76
2023/02/25 09:19:16;;;;;;;;;;;;;;;;;;4416277;32;19944;-77
2023/02/25 09:21:41;;;;;;;;;;;;;;;;;;4429101;32;19949;-76
2023/02/25 09:24:06;;;;;;;;;;;;;;;;;;4427882;32;19947;-77
2023/02/25 09:26:31;;;;;;;;;;;;;;;;;;4430814;32;20045;-77
2023/02/25 09:28:56;;;;;;;;;;;;;;;;;;4427226;32;20315;-77
2023/02/25 09:31:21;;;;;;;;;;;;;;;;;;4429678;32;20003;-77
2023/02/25 09:33:46;;;;;;;;;;;;;;;;;;4430270;32;19952;-77
2023/02/25 09:36:12;;;;;;;;;;;;;;;;;;4427389;32;20365;-78
2023/02/25 09:38:37;;;;;;;;;;;;;;;;;;4418124;32;19960;-78
2023/02/25 09:41:02;;;;;;;;;;;;;;;;;;4413440;32;19977;-78
2023/02/25 09:43:27;;;;;;;;;;;;;;;;;;4431428;32;19933;-79
2023/02/25 09:45:52;;;;;;;;;;;;;;;;;;4433066;32;19984;-76
2023/02/25 09:48:17;;;;;;;;;;;;;;;;;;4423078;32;19945;-77
2023/02/25 09:50:42;;;;;;;;;;;;;;;;;;4420766;32;19944;-77
2023/02/25 09:53:08;;;;;;;;;;;;;;;;;;4419986;32;20391;-77
2023/02/25 09:55:33;;;;;;;;;;;;;;;;;;4422044;32;19937;-78
2023/02/25 09:57:58;;;;;;;;;;;;;;;;;;4408035;32;20265;-78
2023/02/25 10:00:23;;;;;;;;;;;;;;;;;;4421335;32;20268;-77
2023/02/25 10:02:48;;;;;;;;;;;;;;;;;;4422083;32;19945;-78
2023/02/25 10:05:13;;;;;;;;;;;;;;;;;;4421582;32;20026;-78
2023/02/25 10:07:39;;;;;;;;;;;;;;;;;;4407509;32;20341;-78
2023/02/25 10:10:04;;;;;;;;;;;;;;;;;;4431673;32;19974;-78
2023/02/25 10:12:29;;;;;;;;;;;;;;;;;;4436667;32;19951;-78
2023/02/25 10:14:54;;;;;;;;;;;;;;;;;;4436925;32;20281;-78
2023/02/25 10:17:19;;;;;;;;;;;;;;;;;;4436353;32;20303;-78
2023/02/25 10:19:44;;;;;;;;;;;;;;;;;;4438171;32;20009;-78
2023/02/25 10:22:09;;;;;;;;;;;;;;;;;;4437094;32;19974;-78
2023/02/25 10:24:34;;;;;;;;;;;;;;;;;;4436718;32;19937;-78
2023/02/25 10:27:01;;;;;;;;;;;;;;;;;;4436655;32;20329;-78
2023/02/25 10:29:27;;;;;;;;;;;;;;;;;;4438324;32;19944;-78
2023/02/25 10:31:52;;;;;;;;;;;;;;;;;;4437061;32;19955;-79
2023/02/25 10:34:17;;;;;;;;;;;;;;;;;;4424196;32;19944;-77
2023/02/25 10:36:42;;;;;;;;;;;;;;;;;;4436883;32;19975;-77
2023/02/25 10:39:07;;;;;;;;;;;;;;;;;;4422608;32;19943;-78
2023/02/25 10:41:32;;;;;;;;;;;;;;;;;;4436135;32;20066;-77
2023/02/25 10:43:57;;;;;;;;;;;;;;;;;;4436985;32;20307;-78
2023/02/25 10:46:22;;;;;;;;;;;;;;;;;;4437792;32;19932;-78
2023/02/25 10:48:48;;;;;;;;;;;;;;;;;;4438276;32;19950;-77
2023/02/25 10:51:13;;;;;;;;;;;;;;;;;;4440303;32;19959;-77
2023/02/25 10:53:38;;;;;;;;;;;;;;;;;;4436652;32;20291;-77
2023/02/25 10:56:03;;;;;;;;;;;;;;;;;;4436885;32;19966;-77
2023/02/25 10:58:30;;;;;;;;;;;;;;;;;;4436690;32;19941;-77
2023/02/25 11:00:55;;;;;;;;;;;;;;;;;;4423114;32;20269;-78
2023/02/25 11:03:20;;;;;;;;;;;;;;;;;;4436952;32;19972;-76
2023/02/25 11:05:45;;;;;;;;;;;;;;;;;;4438990;32;19953;-78
2023/02/25 11:08:10;;;;;;;;;;;;;;;;;;4440427;32;20404;-78
2023/02/25 11:10:35;;;;;;;;;;;;;;;;;;4436641;32;19942;-77
2023/02/25 11:13:02;;;;;;;;;;;;;;;;;;4437232;32;20029;-78
2023/02/25 11:15:27;;;;;;;;;;;;;;;;;;4438240;32;19994;-77
2023/02/25 11:17:52;;;;;;;;;;;;;;;;;;4437003;32;19945;-78
2023/02/25 11:20:17;;;;;;;;;;;;;;;;;;4436968;32;19984;-77
2023/02/25 11:22:45;;;;;;;;;;;;;;;;;;4438455;32;19964;-77
2023/02/25 11:25:10;;;;;;;;;;;;;;;;;;4436091;32;19932;-77
2023/02/25 11:27:35;;;;;;;;;;;;;;;;;;4437381;32;19952;-78
2023/02/25 11:30:00;;;;;;;;;;;;;;;;;;4438283;32;19929;-78
2023/02/25 11:32:25;;;;;;;;;;;;;;;;;;4437901;32;19957;-77
2023/02/25 11:34:50;;;;;;;;;;;;;;;;;;4436083;32;19970;-78
2023/02/25 11:37:15;;;;;;;;;;;;;;;;;;4435929;32;19941;-78
2023/02/25 11:39:41;;;;;;;;;;;;;;;;;;4437544;32;19986;-78
2023/02/25 11:42:06;;;;;;;;;;;;;;;;;;4436183;32;19977;-78
2023/02/25 11:44:31;;;;;;;;;;;;;;;;;;4436157;32;19967;-78
2023/02/25 11:46:56;;;;;;;;;;;;;;;;;;4436007;32;19977;-77
2023/02/25 11:49:21;;;;;;;;;;;;;;;;;;4437671;32;19990;-77
2023/02/25 11:51:46;;;;;;;;;;;;;;;;;;4437636;32;19933;-77
2023/02/25 11:54:11;;;;;;;;;;;;;;;;;;4436757;32;20004;-78
2023/02/25 11:56:36;;;;;;;;;;;;;;;;;;4440429;32;20258;-77
2023/02/25 11:59:02;;;;;;;;;;;;;;;;;;4440188;32;20002;-77
2023/02/25 12:01:27;;;;;;;;;;;;;;;;;;4441592;32;19948;-78
2023/02/25 12:03:52;;;;;;;;;;;;;;;;;;4438543;32;19983;-78
2023/02/25 12:06:17;;;;;;;;;;;;;;;;;;4438413;32;19980;-77
2023/02/25 12:08:42;;;;;;;;;;;;;;;;;;4436089;32;20080;-77
2023/02/25 12:11:07;;;;;;;;;;;;;;;;;;4436199;32;19944;-78
2023/02/25 12:13:32;;;;;;;;;;;;;;;;;;4437295;32;19952;-77
2023/02/25 12:15:58;;;;;;;;;;;;;;;;;;4433090;32;19955;-78
2023/02/25 12:18:23;;;;;;;;;;;;;;;;;;4439018;32;19937;-77
2023/02/25 12:20:49;;;;;;;;;;;;;;;;;;4416537;32;19987;-77
2023/02/25 12:23:14;;;;;;;;;;;;;;;;;;4424049;32;19955;-78
2023/02/25 12:25:39;;;;;;;;;;;;;;;;;;4424225;32;19968;-78
2023/02/25 12:28:04;;;;;;;;;;;;;;;;;;4411640;32;19998;-78
2023/02/25 12:30:29;;;;;;;;;;;;;;;;;;4423414;32;19938;-78
2023/02/25 12:32:54;;;;;;;;;;;;;;;;;;4424167;32;19932;-78
2023/02/25 12:35:19;;;;;;;;;;;;;;;;;;4423298;32;19977;-78
2023/02/25 12:37:45;;;;;;;;;;;;;;;;;;4424486;32;19955;-78
2023/02/25 12:40:10;;;;;;;;;;;;;;;;;;4424213;32;19941;-78
2023/02/25 12:42:35;;;;;;;;;;;;;;;;;;4422206;32;19948;-78
2023/02/25 12:45:00;;;;;;;;;;;;;;;;;;4423839;32;19952;-77
2023/02/25 12:47:25;;;;;;;;;;;;;;;;;;4423097;32;19952;-77
2023/02/25 12:49:50;;;;;;;;;;;;;;;;;;4409112;32;20327;-78
2023/02/25 12:52:15;;;;;;;;;;;;;;;;;;4422853;32;19948;-78
2023/02/25 12:54:41;;;;;;;;;;;;;;;;;;4413707;32;20341;-78
2023/02/25 12:57:06;;;;;;;;;;;;;;;;;;4431124;32;19943;-79
2023/02/25 12:59:31;;;;;;;;;;;;;;;;;;4422550;32;19948;-78
2023/02/25 13:01:56;;;;;;;;;;;;;;;;;;4431920;32;19944;-78
2023/02/25 13:04:21;;;;;;;;;;;;;;;;;;4455701;32;19998;-80
2023/02/25 13:06:46;;;;;;;;;;;;;;;;;;4454468;32;19928;-79
2023/02/25 13:09:11;;;;;;;;;;;;;;;;;;4429301;32;20013;-79
2023/02/25 13:11:36;;;;;;;;;;;;;;;;;;4423770;32;20282;-78
2023/02/25 13:14:02;;;;;;;;;;;;;;;;;;4432238;32;20378;-78
2023/02/25 13:16:27;;;;;;;;;;;;;;;;;;4432518;32;19972;-78
2023/02/25 13:18:52;;;;;;;;;;;;;;;;;;4429333;32;19941;-79
2023/02/25 13:21:17;;;;;;;;;;;;;;;;;;4431432;32;19959;-79
2023/02/25 13:23:42;;;;;;;;;;;;;;;;;;4428433;32;19995;-79
2023/02/25 13:26:08;;;;;;;;;;;;;;;;;;4431474;32;19936;-78
2023/02/25 13:28:33;;;;;;;;;;;;;;;;;;4429368;32;19945;-78
2023/02/25 13:30:58;;;;;;;;;;;;;;;;;;4431213;32;19976;-78
2023/02/25 13:33:23;;;;;;;;;;;;;;;;;;4431227;32;19998;-78
2023/02/25 13:35:48;;;;;;;;;;;;;;;;;;4429794;32;20335;-79
2023/02/25 13:38:14;;;;;;;;;;;;;;;;;;4429833;32;19976;-79
2023/02/25 13:40:39;;;;;;;;;;;;;;;;;;4427615;32;19985;-78
2023/02/25 13:43:04;;;;;;;;;;;;;;;;;;4432865;32;19949;-78
2023/02/25 13:45:29;;;;;;;;;;;;;;;;;;4424000;32;19948;-79
2023/02/25 13:47:55;;;;;;;;;;;;;;;;;;4426619;32;19960;-79
2023/02/25 13:50:20;;;;;;;;;;;;;;;;;;4437210;32;19946;-78
2023/02/25 13:52:45;;;;;;;;;;;;;;;;;;4438654;32;19945;-79
2023/02/25 13:55:11;;;;;;;;;;;;;;;;;;4424463;32;19941;-78
2023/02/25 13:57:36;;;;;;;;;;;;;;;;;;4437405;32;19972;-79
2023/02/25 14:00:01;;;;;;;;;;;;;;;;;;4436603;32;19947;-78
2023/02/25 14:02:26;;;;;;;;;;;;;;;;;;4430686;32;19945;-78
2023/02/25 14:04:52;;;;;;;;;;;;;;;;;;4422538;32;19933;-79
2023/02/25 14:07:17;;;;;;;;;;;;;;;;;;4421209;32;20048;-78
2023/02/25 14:09:42;;;;;;;;;;;;;;;;;;4422479;32;19980;-78
2023/02/25 14:12:08;;;;;;;;;;;;;;;;;;4421745;32;20376;-79
2023/02/25 14:14:33;;;;;;;;;;;;;;;;;;4407199;32;19933;-79
2023/02/25 14:16:58;;;;;;;;;;;;;;;;;;4422175;32;20101;-78
2023/02/25 14:19:23;;;;;;;;;;;;;;;;;;4422152;32;19957;-78
2023/02/25 14:21:48;;;;;;;;;;;;;;;;;;4422628;32;19999;-78
2023/02/25 14:24:13;;;;;;;;;;;;;;;;;;4420627;32;19945;-77
2023/02/25 14:26:39;;;;;;;;;;;;;;;;;;4406998;32;19941;-78
2023/02/25 14:29:05;;;;;;;;;;;;;;;;;;4426813;32;19945;-78
2023/02/25 14:31:30;;;;;;;;;;;;;;;;;;4445663;32;19977;-78
2023/02/25 14:33:56;;;;;;;;;;;;;;;;;;4453315;32;19932;-79
2023/02/25 14:36:25;;;;;;;;;;;;;;;;;;4452372;32;20103;-79
2023/02/25 14:38:50;;;;;;;;;;;;;;;;;;4452700;32;19936;-78
2023/02/25 14:41:15;;;;;;;;;;;;;;;;;;4451795;32;19944;-79
2023/02/25 14:43:40;;;;;;;;;;;;;;;;;;4452271;32;19941;-78
2023/02/25 14:46:05;;;;;;;;;;;;;;;;;;4451185;32;19980;-78
2023/02/25 14:48:30;;;;;;;;;;;;;;;;;;4453110;32;19968;-79
2023/02/25 14:50:55;;;;;;;;;;;;;;;;;;4437717;32;19956;-79
2023/02/25 14:53:20;;;;;;;;;;;;;;;;;;4451826;32;20344;-79
2023/02/25 14:55:46;;;;;;;;;;;;;;;;;;4454625;32;19932;-79
2023/02/25 14:58:11;;;;;;;;;;;;;;;;;;4454746;32;19940;-79
2023/02/25 15:00:36;;;;;;;;;;;;;;;;;;4454364;32;19992;-78
2023/02/25 15:03:01;;;;;;;;;;;;;;;;;;4437439;32;19977;-79
2023/02/25 15:05:26;;;;;;;;;;;;;;;;;;4451702;32;19980;-79
2023/02/25 15:07:51;;;;;;;;;;;;;;;;;;4453377;32;20307;-79
2023/02/25 15:10:16;;;;;;;;;;;;;;;;;;4453733;32;19966;-79
2023/02/25 15:12:41;;;;;;;;;;;;;;;;;;4453701;32;19933;-79
2023/02/25 15:15:07;;;;;;;;;;;;;;;;;;4452047;32;19944;-79
2023/02/25 15:17:32;;;;;;;;;;;;;;;;;;4439614;32;19940;-79
2023/02/25 15:19:57;;;;;;;;;;;;;;;;;;4414190;32;19941;-79
2023/02/25 15:22:22;;;;;;;;;;;;;;;;;;4409272;32;20040;-80
2023/02/25 15:24:47;;;;;;;;;;;;;;;;;;4409883;32;19944;-79
2023/02/25 15:27:12;;;;;;;;;;;;;;;;;;4409882;32;19990;-79
2023/02/25 15:29:38;;;;;;;;;;;;;;;;;;4422702;32;19940;-79
2023/02/25 15:32:03;;;;;;;;;;;;;;;;;;4407153;32;19937;-79
2023/02/25 15:34:28;;;;;;;;;;;;;;;;;;4421486;32;20243;-78
2023/02/25 15:36:53;;;;;;;;;;;;;;;;;;4412656;32;19960;-78
2023/02/25 15:39:18;;;;;;;;;;;;;;;;;;4435885;32;19977;-78
2023/02/25 15:41:43;;;;;;;;;;;;;;;;;;4435614;32;20284;-78
2023/02/25 15:44:08;;;;;;;;;;;;;;;;;;4437127;32;19941;-78
2023/02/25 15:46:33;;;;;;;;;;;;;;;;;;4422578;32;20236;-78
2023/02/25 15:48:59;;;;;;;;;;;;;;;;;;4436584;32;19957;-78
2023/02/25 15:51:24;;;;;;;;;;;;;;;;;;4435728;32;19937;-79
2023/02/25 15:53:51;;;;;;;;;;;;;;;;;;4436430;32;19945;-79
2023/02/25 15:56:16;;;;;;;;;;;;;;;;;;4424239;32;19928;-80
2023/02/25 15:58:41;;;;;;;;;;;;;;;;;;4438985;32;19932;-78
2023/02/25 16:01:06;;;;;;;;;;;;;;;;;;4441016;32;19941;-77
2023/02/25 16:03:34;;;;;;;;;;;;;;;;;;4440322;32;20310;-79
2023/02/25 16:05:59;;;;;;;;;;;;;;;;;;4440932;32;19978;-79
2023/02/25 16:08:24;;;;;;;;;;;;;;;;;;4440331;32;19937;-80
2023/02/25 16:10:49;;;;;;;;;;;;;;;;;;4440028;32;19937;-78
2023/02/25 16:13:14;;;;;;;;;;;;;;;;;;4439871;32;19996;-78
2023/02/25 16:15:40;;;;;;;;;;;;;;;;;;4440007;32;19937;-78
2023/02/25 16:18:05;;;;;;;;;;;;;;;;;;4441307;32;19936;-78
2023/02/25 16:20:30;;;;;;;;;;;;;;;;;;4440597;32;19942;-79
2023/02/25 16:22:55;;;;;;;;;;;;;;;;;;4440635;32;19936;-79
2023/02/25 16:25:21;;;;;;;;;;;;;;;;;;4439194;32;19937;-78
2023/02/25 16:27:46;;;;;;;;;;;;;;;;;;4439153;32;19937;-79
2023/02/25 16:30:11;;;;;;;;;;;;;;;;;;4440078;32;19989;-79
2023/02/25 16:32:36;;;;;;;;;;;;;;;;;;4438844;32;19951;-79